Time;durP1;ratioP1;P1;durP2;ratioP2;P2;SDS_P1;SDS_P2;PMS_P1;PMS_P2;Temp;Humidity;BMP_temperature;BMP_pressure;BME280_temperature;BME280_humidity;BME280_pressure;Samples;Min_cycle;Max_cycle;Signal;HPM_P1;HPM_P2
2022/08/10 00:00:29;;;;;;;7.57;5.50;;;;;;;;;;4935671;28;20027;-85
2022/08/10 00:02:56;;;;;;;6.10;3.97;;;;;;;;;;4935824;28;20028;-85
2022/08/10 00:05:23;;;;;;;7.47;4.55;;;;;;;;;;4938978;28;20024;-84
2022/08/10 00:07:50;;;;;;;8.30;4.05;;;;;;;;;;4939301;28;20391;-85
2022/08/10 00:10:17;;;;;;;6.72;3.80;;;;;;;;;;4939749;29;20035;-84
2022/08/10 00:12:43;;;;;;;9.73;3.50;;;;;;;;;;4939589;29;20036;-85
2022/08/10 00:15:10;;;;;;;4.38;2.90;;;;;;;;;;4939663;29;20027;-84
2022/08/10 00:17:36;;;;;;;7.38;3.17;;;;;;;;;;4938562;28;20123;-84
2022/08/10 00:20:03;;;;;;;7.10;2.72;;;;;;;;;;4939815;29;20032;-84
2022/08/10 00:22:29;;;;;;;5.07;2.38;;;;;;;;;;4939459;29;20448;-84
2022/08/10 00:24:56;;;;;;;5.07;2.97;;;;;;;;;;4938426;28;20113;-85
2022/08/10 00:27:27;;;;;;;3.90;2.33;;;;;;;;;;4939471;29;20326;-85
2022/08/10 00:29:53;;;;;;;4.38;2.70;;;;;;;;;;4939740;29;20345;-84
2022/08/10 00:32:19;;;;;;;4.65;2.70;;;;;;;;;;4957552;28;20031;-85
2022/08/10 00:34:45;;;;;;;5.07;2.40;;;;;;;;;;4958032;28;20023;-84
2022/08/10 00:37:12;;;;;;;4.22;2.67;;;;;;;;;;4957955;28;20059;-84
2022/08/10 00:39:38;;;;;;;5.60;2.72;;;;;;;;;;4958085;28;20051;-84
2022/08/10 00:42:08;;;;;;;5.22;2.63;;;;;;;;;;4958500;28;20157;-85
2022/08/10 00:44:37;;;;;;;5.32;2.33;;;;;;;;;;4957747;28;20027;-85
2022/08/10 00:47:04;;;;;;;8.25;2.13;;;;;;;;;;4958468;28;20066;-85
2022/08/10 00:49:30;;;;;;;4.38;2.40;;;;;;;;;;4958280;28;20049;-84
2022/08/10 00:51:56;;;;;;;5.72;2.20;;;;;;;;;;4958249;28;20050;-85
2022/08/10 00:54:22;;;;;;;5.32;2.13;;;;;;;;;;4958085;28;20031;-85
2022/08/10 00:56:48;;;;;;;7.38;2.03;;;;;;;;;;4958385;28;20031;-85
2022/08/10 00:59:14;;;;;;;4.72;1.70;;;;;;;;;;4957171;28;20024;-85
2022/08/10 01:01:40;;;;;;;5.00;2.15;;;;;;;;;;4958229;28;20072;-86
2022/08/10 01:04:06;;;;;;;3.05;1.80;;;;;;;;;;4957199;28;20028;-85
2022/08/10 01:06:51;;;;;;;5.35;1.70;;;;;;;;;;4958192;28;20049;-85
2022/08/10 01:09:17;;;;;;;4.90;1.90;;;;;;;;;;4958193;29;20027;-85
2022/08/10 01:11:45;;;;;;;6.05;1.90;;;;;;;;;;4957931;28;20397;-85
2022/08/10 01:14:30;;;;;;;3.92;1.80;;;;;;;;;;4957807;28;20343;-85
2022/08/10 01:17:00;;;;;;;2.03;1.63;;;;;;;;;;4957748;28;20030;-85
2022/08/10 01:19:44;;;;;;;2.83;1.60;;;;;;;;;;4956503;28;20329;-84
2022/08/10 01:22:10;;;;;;;2.65;1.73;;;;;;;;;;4957931;28;20042;-85
2022/08/10 01:25:00;;;;;;;7.00;1.85;;;;;;;;;;4956834;28;20031;-85
2022/08/10 01:27:33;;;;;;;3.03;1.70;;;;;;;;;;4957769;28;20023;-86
2022/08/10 01:30:01;;;;;;;3.72;1.92;;;;;;;;;;4957602;28;20024;-85
2022/08/10 01:32:35;;;;;;;4.13;1.90;;;;;;;;;;4956469;28;20129;-85
2022/08/10 01:54:39;;;;;;;3.78;1.73;;;;;;;;;;5136039;27;20409;-85
2022/08/10 01:57:06;;;;;;;5.07;1.88;;;;;;;;;;5135818;28;20023;-86
2022/08/10 01:59:35;;;;;;;2.45;1.90;;;;;;;;;;5135822;28;20031;-86
2022/08/10 02:02:06;;;;;;;5.13;2.13;;;;;;;;;;5135565;28;20031;-86
2022/08/10 02:04:34;;;;;;;3.10;1.90;;;;;;;;;;5100017;28;20040;-85
2022/08/10 02:07:00;;;;;;;2.92;2.10;;;;;;;;;;5135787;28;20031;-86
2022/08/10 02:09:28;;;;;;;4.95;2.10;;;;;;;;;;5135649;28;20083;-86
2022/08/10 02:11:57;;;;;;;3.88;1.90;;;;;;;;;;5135776;28;20060;-86
2022/08/10 02:14:24;;;;;;;3.45;1.95;;;;;;;;;;5117703;28;20015;-86
2022/08/10 02:16:51;;;;;;;3.65;1.90;;;;;;;;;;5117438;28;20030;-86
2022/08/10 02:19:20;;;;;;;3.92;1.95;;;;;;;;;;5135327;28;20051;-86
2022/08/10 02:21:47;;;;;;;2.72;2.03;;;;;;;;;;5135178;28;20402;-86
2022/08/10 02:24:15;;;;;;;3.55;1.77;;;;;;;;;;5135359;28;20023;-86
2022/08/10 02:26:45;;;;;;;3.42;2.47;;;;;;;;;;5135320;28;20420;-86
2022/08/10 02:29:12;;;;;;;3.92;2.15;;;;;;;;;;5135167;28;20098;-86
2022/08/10 02:31:40;;;;;;;3.13;2.00;;;;;;;;;;5135202;28;20105;-86
2022/08/10 02:34:07;;;;;;;2.80;1.92;;;;;;;;;;5135064;28;20072;-86
2022/08/10 02:36:34;;;;;;;2.72;1.77;;;;;;;;;;5135347;28;20030;-86
2022/08/10 02:39:02;;;;;;;5.25;2.63;;;;;;;;;;5117032;28;20387;-86
2022/08/10 02:41:32;;;;;;;3.05;2.10;;;;;;;;;;5135219;28;20102;-86
2022/08/10 02:44:02;;;;;;;4.03;2.33;;;;;;;;;;5134809;28;20282;-86
2022/08/10 02:46:31;;;;;;;4.68;1.95;;;;;;;;;;5134761;28;20508;-86
2022/08/10 02:49:01;;;;;;;6.28;2.17;;;;;;;;;;5116665;28;20023;-86
2022/08/10 02:51:48;;;;;;;7.03;2.22;;;;;;;;;;5116851;28;20026;-86
2022/08/10 02:54:20;;;;;;;5.50;2.03;;;;;;;;;;5128039;28;20441;-86
2022/08/10 02:56:46;;;;;;;;;;;;;;;;;;5120606;28;20028;-86
2022/08/10 02:59:14;;;;;;;4.60;2.03;;;;;;;;;;5120719;28;19908;-86
2022/08/10 03:01:45;;;;;;;4.70;2.10;;;;;;;;;;5121066;28;20027;-85
2022/08/10 03:04:15;;;;;;;4.70;2.05;;;;;;;;;;5121209;28;20020;-86
2022/08/10 03:06:44;;;;;;;6.35;2.25;;;;;;;;;;5120817;28;20294;-86
2022/08/10 03:09:12;;;;;;;4.45;2.65;;;;;;;;;;5120661;28;20393;-86
2022/08/10 03:11:40;;;;;;;3.45;2.20;;;;;;;;;;5119560;28;20028;-86
2022/08/10 03:14:07;;;;;;;5.25;2.30;;;;;;;;;;5120634;28;20390;-87
2022/08/10 03:16:34;;;;;;;3.10;2.13;;;;;;;;;;5120608;28;20023;-86
2022/08/10 03:19:02;;;;;;;3.92;2.70;;;;;;;;;;5120683;28;20051;-86
2022/08/10 03:21:28;;;;;;;4.25;2.38;;;;;;;;;;5120680;28;20031;-86
2022/08/10 03:23:55;;;;;;;2.83;2.20;;;;;;;;;;5120639;28;20036;-86
2022/08/10 03:26:21;;;;;;;3.17;2.25;;;;;;;;;;5120472;28;20020;-86
2022/08/10 03:28:47;;;;;;;4.95;2.47;;;;;;;;;;5119480;28;20058;-86
2022/08/10 03:31:14;;;;;;;3.92;2.00;;;;;;;;;;5120637;28;20031;-86
2022/08/10 03:33:41;;;;;;;4.00;2.10;;;;;;;;;;5120014;28;20397;-86
2022/08/10 03:36:08;;;;;;;2.80;2.10;;;;;;;;;;5120299;28;20024;-86
2022/08/10 03:38:34;;;;;;;4.10;1.90;;;;;;;;;;5120251;28;20026;-86
2022/08/10 03:41:04;;;;;;;3.22;1.77;;;;;;;;;;5120119;28;20024;-86
2022/08/10 03:43:31;;;;;;;4.70;2.03;;;;;;;;;;5118960;28;20076;-86
2022/08/10 03:45:59;;;;;;;6.40;2.53;;;;;;;;;;5119972;28;20061;-86
2022/08/10 03:48:26;;;;;;;5.22;2.20;;;;;;;;;;5120293;28;20058;-86
2022/08/10 03:50:52;;;;;;;3.83;2.10;;;;;;;;;;5120112;28;20020;-86
2022/08/10 03:53:18;;;;;;;3.80;2.05;;;;;;;;;;5119833;28;20096;-86
2022/08/10 03:55:45;;;;;;;8.00;2.22;;;;;;;;;;5119889;28;20074;-86
2022/08/10 03:58:11;;;;;;;4.68;2.35;;;;;;;;;;5119942;28;20344;-86
2022/08/10 04:00:37;;;;;;;5.28;2.20;;;;;;;;;;5118807;28;20019;-86
2022/08/10 04:03:04;;;;;;;5.15;2.15;;;;;;;;;;5118673;28;20031;-86
2022/08/10 04:05:31;;;;;;;5.30;2.00;;;;;;;;;;5118989;28;20414;-86
2022/08/10 04:07:58;;;;;;;3.78;2.10;;;;;;;;;;5119447;28;20114;-86
2022/08/10 04:10:24;;;;;;;5.05;2.05;;;;;;;;;;5119587;28;20095;-86
2022/08/10 04:12:50;;;;;;;3.47;2.60;;;;;;;;;;5119520;28;20405;-86
2022/08/10 04:15:16;;;;;;;3.45;2.15;;;;;;;;;;5119150;28;20032;-86
2022/08/10 04:17:42;;;;;;;3.92;2.25;;;;;;;;;;5119447;28;20024;-86
2022/08/10 04:20:28;;;;;;;3.33;2.20;;;;;;;;;;5119645;28;20028;-86
2022/08/10 04:22:56;;;;;;;6.75;2.20;;;;;;;;;;5119101;28;20027;-86
2022/08/10 04:25:23;;;;;;;3.42;1.95;;;;;;;;;;5119290;28;20034;-85
2022/08/10 04:28:10;;;;;;;5.20;2.15;;;;;;;;;;5119356;28;20031;-86
2022/08/10 04:30:36;;;;;;;5.28;1.80;;;;;;;;;;5119107;28;20019;-86
2022/08/10 04:33:03;;;;;;;4.68;2.00;;;;;;;;;;5118950;28;20317;-86
2022/08/10 04:35:31;;;;;;;6.88;2.55;;;;;;;;;;5119303;28;20016;-86
2022/08/10 04:37:58;;;;;;;5.20;2.10;;;;;;;;;;5119088;28;20338;-85
2022/08/10 04:40:25;;;;;;;3.00;2.13;;;;;;;;;;5118129;28;20027;-86
2022/08/10 04:42:51;;;;;;;2.53;2.13;;;;;;;;;;5118961;28;20336;-86
2022/08/10 04:45:17;;;;;;;2.67;2.00;;;;;;;;;;5117529;28;20061;-86
2022/08/10 04:58:52;;;;;;;4.30;2.00;;;;;;;;;;5156623;27;20368;-87
2022/08/10 05:01:18;;;;;;;7.85;2.05;;;;;;;;;;5156541;27;20019;-87
2022/08/10 05:03:44;;;;;;;5.63;1.77;;;;;;;;;;5156562;27;20023;-87
2022/08/10 05:06:10;;;;;;;3.78;1.70;;;;;;;;;;5156464;27;20050;-87
2022/08/10 05:08:37;;;;;;;3.58;1.85;;;;;;;;;;5156409;27;20068;-86
2022/08/10 05:11:03;;;;;;;4.90;2.33;;;;;;;;;;5138026;27;20399;-87
2022/08/10 05:13:29;;;;;;;3.15;2.28;;;;;;;;;;5156540;27;20316;-87
2022/08/10 05:15:55;;;;;;;4.22;2.38;;;;;;;;;;5156449;27;20114;-86
2022/08/10 05:18:21;;;;;;;6.22;3.50;;;;;;;;;;5137518;27;20034;-87
2022/08/10 05:20:47;;;;;;;5.07;3.10;;;;;;;;;;5156191;27;20109;-87
2022/08/10 05:23:13;;;;;;;6.22;2.63;;;;;;;;;;5156026;27;20019;-87
2022/08/10 05:25:39;;;;;;;4.95;2.50;;;;;;;;;;5156064;27;20023;-86
2022/08/10 05:28:06;;;;;;;2.88;1.90;;;;;;;;;;5137525;27;20039;-86
2022/08/10 05:30:32;;;;;;;3.17;2.10;;;;;;;;;;5155800;27;20019;-86
2022/08/10 05:32:58;;;;;;;8.05;3.00;;;;;;;;;;5155916;27;20023;-86
2022/08/10 05:35:24;;;;;;;6.72;2.33;;;;;;;;;;5137647;27;20023;-86
2022/08/10 05:37:51;;;;;;;6.18;2.20;;;;;;;;;;5155799;27;20109;-87
2022/08/10 05:40:17;;;;;;;4.00;1.98;;;;;;;;;;5155671;27;20023;-86
2022/08/10 05:42:43;;;;;;;4.22;2.03;;;;;;;;;;5137354;27;20106;-86
2022/08/10 05:45:30;;;;;;;6.57;2.20;;;;;;;;;;5155602;27;20019;-86
2022/08/10 05:47:56;;;;;;;4.15;1.60;;;;;;;;;;5155354;27;20023;-86
2022/08/10 05:50:24;;;;;;;2.97;1.80;;;;;;;;;;5137038;27;20041;-87
2022/08/10 05:52:51;;;;;;;6.90;1.88;;;;;;;;;;5146529;27;20031;-86
2022/08/10 05:55:17;;;;;;;4.03;1.80;;;;;;;;;;5155539;27;20019;-86
2022/08/10 05:57:43;;;;;;;9.90;2.10;;;;;;;;;;5151265;27;20050;-86
2022/08/10 06:00:14;;;;;;;3.30;1.80;;;;;;;;;;5140700;27;20050;-86
2022/08/10 06:02:44;;;;;;;5.60;2.75;;;;;;;;;;5141595;27;20019;-87
2022/08/10 06:05:13;;;;;;;5.15;2.60;;;;;;;;;;5140621;27;20054;-87
2022/08/10 06:07:40;;;;;;;3.47;1.85;;;;;;;;;;5141340;27;20016;-87
2022/08/10 06:10:08;;;;;;;3.88;1.60;;;;;;;;;;5141623;27;20031;-87
2022/08/10 06:12:34;;;;;;;3.55;1.80;;;;;;;;;;5141492;27;20027;-87
2022/08/10 06:15:02;;;;;;;2.63;1.85;;;;;;;;;;5141431;27;20023;-87
2022/08/10 06:17:29;;;;;;;7.50;2.30;;;;;;;;;;5141272;27;20413;-87
2022/08/10 06:19:59;;;;;;;5.00;2.00;;;;;;;;;;5141330;27;20023;-87
2022/08/10 06:22:31;;;;;;;4.65;1.70;;;;;;;;;;5141165;27;20019;-87
2022/08/10 06:24:57;;;;;;;4.35;2.35;;;;;;;;;;5141014;27;20285;-86
2022/08/10 06:27:23;;;;;;;7.00;1.98;;;;;;;;;;5140954;27;20035;-86
2022/08/10 06:29:50;;;;;;;3.28;2.03;;;;;;;;;;5141161;27;20034;-87
2022/08/10 06:32:16;;;;;;;5.40;3.15;;;;;;;;;;5140874;27;20023;-87
2022/08/10 06:34:46;;;;;;;8.57;3.65;;;;;;;;;;5139403;27;20062;-87
2022/08/10 06:37:13;;;;;;;5.47;2.28;;;;;;;;;;5139872;27;20023;-87
2022/08/10 06:39:39;;;;;;;7.82;2.45;;;;;;;;;;5141036;27;20031;-86
2022/08/10 06:42:05;;;;;;;3.15;1.90;;;;;;;;;;5139567;27;20034;-86
2022/08/10 06:44:34;;;;;;;11.43;2.17;;;;;;;;;;5140720;27;20023;-87
2022/08/10 06:47:00;;;;;;;4.25;2.08;;;;;;;;;;5140983;27;20035;-87
2022/08/10 06:49:26;;;;;;;4.88;2.33;;;;;;;;;;5141455;27;20053;-87
2022/08/10 06:51:55;;;;;;;4.28;1.73;;;;;;;;;;5141251;27;20023;-88
2022/08/10 06:54:23;;;;;;;5.63;1.80;;;;;;;;;;5141466;27;20019;-88
2022/08/10 06:56:50;;;;;;;4.30;2.00;;;;;;;;;;5140975;27;20051;-88
2022/08/10 06:59:36;;;;;;;5.40;1.80;;;;;;;;;;5140813;27;20020;-87
2022/08/10 07:02:14;;;;;;;3.47;1.95;;;;;;;;;;5140999;27;20037;-87
2022/08/10 07:04:42;;;;;;;3.47;1.83;;;;;;;;;;5141204;27;20064;-88
2022/08/10 07:07:08;;;;;;;2.72;1.90;;;;;;;;;;5139450;27;20376;-87
2022/08/10 07:09:37;;;;;;;4.30;2.08;;;;;;;;;;5141262;27;20015;-89
2022/08/10 07:12:04;;;;;;;3.70;2.28;;;;;;;;;;5144874;27;20072;-89
2022/08/10 07:14:31;;;;;;;4.97;2.10;;;;;;;;;;5139098;27;20434;-88
2022/08/10 07:20:20;;;;;;;4.82;2.60;;;;;;;;;;5140290;27;20072;-87
2022/08/10 07:22:51;;;;;;;11.30;2.05;;;;;;;;;;5140233;27;20019;-86
2022/08/10 07:25:21;;;;;;;10.45;2.55;;;;;;;;;;5139898;27;20023;-87
2022/08/10 07:27:48;;;;;;;11.25;2.40;;;;;;;;;;5140323;27;20046;-87
2022/08/10 07:30:15;;;;;;;4.75;2.13;;;;;;;;;;5139821;27;20110;-88
2022/08/10 07:32:43;;;;;;;11.85;2.50;;;;;;;;;;5140277;27;20015;-87
2022/08/10 07:35:11;;;;;;;8.48;2.55;;;;;;;;;;5138939;27;20030;-87
2022/08/10 07:37:37;;;;;;;5.57;2.63;;;;;;;;;;5139974;27;20027;-87
2022/08/10 07:40:04;;;;;;;4.00;1.92;;;;;;;;;;5139903;27;20024;-87
2022/08/10 07:42:31;;;;;;;7.32;2.30;;;;;;;;;;5138700;27;20025;-87
2022/08/10 07:44:58;;;;;;;5.68;2.10;;;;;;;;;;5139613;27;20027;-86
2022/08/10 07:50:45;;;;;;;2.28;1.85;;;;;;;;;;5139754;27;20026;-90
2022/08/10 07:53:12;;;;;;;3.58;1.90;;;;;;;;;;5139440;27;20031;-88
2022/08/10 07:55:42;;;;;;;4.80;1.98;;;;;;;;;;5139729;27;20094;-87
2022/08/10 07:58:09;;;;;;;9.52;2.28;;;;;;;;;;5138318;27;20051;-88
2022/08/10 08:00:36;;;;;;;12.57;2.50;;;;;;;;;;5138452;27;20024;-87
2022/08/10 08:03:06;;;;;;;16.33;2.38;;;;;;;;;;5138649;27;20027;-88
2022/08/10 08:05:32;;;;;;;14.75;2.22;;;;;;;;;;5139314;27;20477;-88
2022/08/10 08:08:02;;;;;;;5.97;2.08;;;;;;;;;;5139428;27;20056;-88
2022/08/10 08:10:30;;;;;;;2.05;1.80;;;;;;;;;;5139450;27;20134;-87
2022/08/10 08:12:56;;;;;;;8.40;3.00;;;;;;;;;;5137924;27;20033;-87
2022/08/10 08:15:23;;;;;;;4.78;2.42;;;;;;;;;;5139440;27;20027;-87
2022/08/10 08:17:51;;;;;;;8.77;2.63;;;;;;;;;;5138117;27;20027;-87
2022/08/10 08:20:18;;;;;;;8.60;2.85;;;;;;;;;;5139102;27;20027;-87
2022/08/10 08:22:46;;;;;;;29.17;17.05;;;;;;;;;;5138692;27;20019;-86
2022/08/10 08:25:12;;;;;;;45.17;27.63;;;;;;;;;;5137539;27;20038;-87
2022/08/10 08:27:40;;;;;;;33.13;21.60;;;;;;;;;;5138797;27;20031;-87
2022/08/10 08:30:09;;;;;;;7.13;2.70;;;;;;;;;;5138626;27;20030;-88
2022/08/10 08:32:37;;;;;;;9.32;2.30;;;;;;;;;;5138045;27;20051;-87
2022/08/10 08:35:07;;;;;;;7.75;1.90;;;;;;;;;;5139052;27;20065;-87
2022/08/10 08:37:34;;;;;;;5.00;1.90;;;;;;;;;;5138857;27;20038;-87
2022/08/10 08:40:08;;;;;;;2.40;1.83;;;;;;;;;;5138806;27;20038;-87
2022/08/10 08:42:57;;;;;;;3.85;2.30;;;;;;;;;;5138681;27;20027;-87
2022/08/10 08:45:26;;;;;;;5.78;1.90;;;;;;;;;;5128011;28;20051;-87
2022/08/10 08:48:16;;;;;;;7.35;2.20;;;;;;;;;;5138517;28;20031;-87
2022/08/10 08:50:54;;;;;;;5.80;1.80;;;;;;;;;;5039051;28;20045;-88
2022/08/10 08:53:42;;;;;;;3.97;1.65;;;;;;;;;;5055668;28;20039;-87
2022/08/10 08:56:27;;;;;;;4.65;1.90;;;;;;;;;;5038863;28;20115;-87
2022/08/10 08:59:11;;;;;;;4.63;2.00;;;;;;;;;;5055764;28;20130;-87
2022/08/10 09:01:49;;;;;;;4.93;2.25;;;;;;;;;;5056798;28;20029;-87
2022/08/10 09:04:22;;;;;;;4.60;2.20;;;;;;;;;;5055949;28;20067;-87
2022/08/10 09:06:54;;;;;;;3.92;2.42;;;;;;;;;;5055509;28;20032;-87
2022/08/10 09:09:38;;;;;;;3.10;2.13;;;;;;;;;;5039024;28;20135;-89
2022/08/10 09:12:23;;;;;;;4.15;1.63;;;;;;;;;;5055585;28;20051;-90
2022/08/10 09:14:55;;;;;;;3.72;1.90;;;;;;;;;;5038755;28;20040;-85
2022/08/10 09:17:37;;;;;;;5.20;2.05;;;;;;;;;;5055402;28;20319;-84
2022/08/10 09:20:09;;;;;;;4.28;2.00;;;;;;;;;;5055349;28;20029;-84
2022/08/10 09:22:42;;;;;;;4.75;1.90;;;;;;;;;;5055374;28;20029;-86
2022/08/10 09:25:31;;;;;;;9.77;2.15;;;;;;;;;;5055536;28;20027;-86
2022/08/10 09:28:05;;;;;;;12.82;2.38;;;;;;;;;;5106068;28;20039;-85
2022/08/10 09:30:34;;;;;;;6.03;2.25;;;;;;;;;;5138450;28;20476;-88
2022/08/10 09:33:10;;;;;;;4.90;2.10;;;;;;;;;;5138898;27;20373;-86
2022/08/10 09:35:55;;;;;;;5.82;2.30;;;;;;;;;;5142023;27;20020;-85
2022/08/10 09:38:37;;;;;;;3.83;1.77;;;;;;;;;;5142313;27;20019;-85
2022/08/10 09:41:15;;;;;;;5.47;1.80;;;;;;;;;;5141291;27;20055;-86
2022/08/10 09:44:00;;;;;;;4.10;2.00;;;;;;;;;;5140917;27;20072;-85
2022/08/10 09:46:29;;;;;;;6.30;1.85;;;;;;;;;;5141600;27;20023;-85
2022/08/10 09:48:58;;;;;;;4.03;2.08;;;;;;;;;;5141832;27;20015;-85
2022/08/10 09:51:36;;;;;;;4.28;2.05;;;;;;;;;;5141904;27;20019;-86
2022/08/10 09:54:28;;;;;;;5.10;2.15;;;;;;;;;;5140197;27;20117;-85
2022/08/10 09:57:09;;;;;;;3.80;1.92;;;;;;;;;;5141354;27;20459;-85
2022/08/10 09:59:35;;;;;;;;;;;;;;;;;;5140905;27;20030;-85
2022/08/10 10:02:07;;;;;;;3.63;2.03;;;;;;;;;;5141350;27;20297;-85
2022/08/10 10:04:40;;;;;;;7.60;2.40;;;;;;;;;;5141283;27;20031;-85
2022/08/10 10:07:07;;;;;;;3.58;2.50;;;;;;;;;;5139953;27;20027;-85
2022/08/10 10:09:33;;;;;;;4.53;2.08;;;;;;;;;;5141188;27;20015;-85
2022/08/10 10:12:11;;;;;;;6.40;2.08;;;;;;;;;;5141493;27;20065;-86
2022/08/10 10:17:42;;;;;;;6.47;2.13;;;;;;;;;;5141134;27;20036;-86
2022/08/10 10:20:37;;;;;;;9.35;2.00;;;;;;;;;;5141480;27;20031;-86
2022/08/10 10:23:07;;;;;;;2.67;2.15;;;;;;;;;;5041177;28;20128;-85
2022/08/10 10:25:38;;;;;;;5.90;2.30;;;;;;;;;;5057996;28;20445;-87
2022/08/10 10:28:07;;;;;;;7.43;2.35;;;;;;;;;;5041135;28;20071;-86
2022/08/10 10:30:38;;;;;;;3.47;2.15;;;;;;;;;;5041044;28;20056;-87
2022/08/10 10:33:14;;;;;;;3.17;1.92;;;;;;;;;;5058041;28;20108;-86
2022/08/10 10:35:55;;;;;;;5.50;1.83;;;;;;;;;;5057928;28;20362;-86
2022/08/10 10:38:25;;;;;;;8.32;2.33;;;;;;;;;;5057956;28;20032;-86
2022/08/10 10:40:54;;;;;;;4.03;1.67;;;;;;;;;;5057744;28;20029;-86
2022/08/10 10:43:20;;;;;;;7.55;1.67;;;;;;;;;;5057854;28;20037;-86
2022/08/10 10:46:11;;;;;;;4.30;1.80;;;;;;;;;;5040621;28;20033;-87
2022/08/10 10:48:44;;;;;;;3.20;1.88;;;;;;;;;;5041754;28;20119;-86
2022/08/10 10:51:21;;;;;;;6.88;2.33;;;;;;;;;;5057801;28;20098;-87
2022/08/10 10:54:05;;;;;;;4.50;2.08;;;;;;;;;;5057827;28;20063;-87
2022/08/10 10:56:50;;;;;;;3.55;1.65;;;;;;;;;;5051172;28;20041;-86
2022/08/10 10:59:22;;;;;;;3.45;1.50;;;;;;;;;;5077466;27;20416;-86
2022/08/10 11:01:54;;;;;;;1.92;1.35;;;;;;;;;;5140801;27;20114;-86
2022/08/10 11:04:26;;;;;;;2.55;1.40;;;;;;;;;;5140498;27;20027;-86
2022/08/10 11:06:59;;;;;;;2.47;1.45;;;;;;;;;;5140266;27;20023;-86
2022/08/10 11:09:33;;;;;;;6.95;1.45;;;;;;;;;;5140091;27;20027;-86
2022/08/10 11:12:02;;;;;;;6.15;1.52;;;;;;;;;;5140465;27;20019;-86
2022/08/10 11:14:39;;;;;;;6.03;1.30;;;;;;;;;;5139899;27;20019;-87
2022/08/10 11:17:10;;;;;;;3.25;1.33;;;;;;;;;;5139228;27;20114;-88
2022/08/10 11:19:45;;;;;;;3.33;2.22;;;;;;;;;;5140380;27;20038;-88
2022/08/10 11:22:17;;;;;;;3.55;1.70;;;;;;;;;;5140020;27;20023;-87
2022/08/10 11:24:43;;;;;;;5.88;1.50;;;;;;;;;;5140182;27;20019;-87
2022/08/10 11:27:28;;;;;;;2.70;1.30;;;;;;;;;;5139982;27;20039;-86
2022/08/10 11:30:00;;;;;;;6.03;1.70;;;;;;;;;;5139883;27;20396;-86
2022/08/10 11:32:35;;;;;;;5.60;1.80;;;;;;;;;;5138864;27;20050;-86
2022/08/10 11:35:10;;;;;;;4.72;1.40;;;;;;;;;;5139696;27;20015;-87
2022/08/10 11:37:40;;;;;;;3.17;1.50;;;;;;;;;;5138797;27;20484;-87
2022/08/10 11:40:09;;;;;;;5.25;1.52;;;;;;;;;;5139715;27;20121;-87
2022/08/10 11:42:41;;;;;;;9.20;1.98;;;;;;;;;;5138852;27;20019;-87
2022/08/10 11:45:21;;;;;;;5.82;1.38;;;;;;;;;;5139832;27;20042;-86
2022/08/10 11:50:52;;;;;;;5.35;1.42;;;;;;;;;;5139562;27;20460;-87
2022/08/10 11:53:24;;;;;;;2.45;1.40;;;;;;;;;;5139633;27;20312;-88
2022/08/10 11:56:00;;;;;;;2.83;1.63;;;;;;;;;;5139090;27;20030;-88
2022/08/10 12:01:17;;;;;;;3.88;1.42;;;;;;;;;;5139538;27;20046;-87
2022/08/10 12:03:44;;;;;;;3.03;1.35;;;;;;;;;;5139241;27;20420;-86
2022/08/10 12:06:12;;;;;;;3.03;1.42;;;;;;;;;;5138307;27;20031;-86
2022/08/10 12:08:40;;;;;;;4.10;1.60;;;;;;;;;;5121022;27;20031;-87
2022/08/10 12:11:08;;;;;;;5.57;1.25;;;;;;;;;;5137960;27;20034;-86
2022/08/10 12:13:41;;;;;;;4.03;1.23;;;;;;;;;;5137688;27;20035;-86
2022/08/10 12:16:09;;;;;;;1.55;1.42;;;;;;;;;;5139258;27;20027;-87
2022/08/10 12:19:03;;;;;;;4.25;1.38;;;;;;;;;;5139330;27;20034;-87
2022/08/10 12:21:40;;;;;;;2.95;1.27;;;;;;;;;;5139009;27;20027;-87
2022/08/10 12:24:15;;;;;;;2.95;1.30;;;;;;;;;;5138976;27;20055;-87
2022/08/10 12:26:50;;;;;;;4.45;1.48;;;;;;;;;;5138901;27;20042;-87
2022/08/10 12:29:37;;;;;;;7.47;1.70;;;;;;;;;;5138949;27;20019;-86
2022/08/10 12:32:06;;;;;;;5.25;1.83;;;;;;;;;;5139610;27;20035;-87
2022/08/10 12:34:44;;;;;;;3.17;1.27;;;;;;;;;;5139135;27;20088;-86
2022/08/10 12:37:22;;;;;;;4.53;1.30;;;;;;;;;;5136933;27;20543;-85
2022/08/10 12:40:00;;;;;;;5.05;1.63;;;;;;;;;;5137259;27;20030;-86
2022/08/10 12:42:30;;;;;;;3.63;1.60;;;;;;;;;;5137642;27;20111;-87
2022/08/10 12:45:02;;;;;;;4.53;1.67;;;;;;;;;;5138741;27;20023;-87
2022/08/10 12:47:40;;;;;;;3.95;1.33;;;;;;;;;;5137621;28;20027;-87
2022/08/10 12:50:24;;;;;;;6.25;1.55;;;;;;;;;;5120613;28;20031;-84
2022/08/10 12:52:55;;;;;;;5.38;1.90;;;;;;;;;;5138533;27;20028;-84
2022/08/10 12:55:22;;;;;;;4.03;1.58;;;;;;;;;;5138841;27;20092;-84
2022/08/10 12:57:54;;;;;;;7.00;1.80;;;;;;;;;;5138251;27;20051;-84
2022/08/10 13:00:25;;;;;;;5.05;1.67;;;;;;;;;;5138545;28;20027;-84
2022/08/10 13:02:52;;;;;;;3.10;1.92;;;;;;;;;;5137355;28;20027;-84
2022/08/10 13:05:18;;;;;;;10.70;4.70;;;;;;;;;;5138055;28;20072;-83
2022/08/10 13:07:46;;;;;;;9.90;5.53;;;;;;;;;;5138674;27;20031;-85
2022/08/10 13:10:16;;;;;;;5.28;1.90;;;;;;;;;;5141543;27;20106;-83
2022/08/10 13:12:50;;;;;;;8.10;1.83;;;;;;;;;;5142893;27;20031;-84
2022/08/10 13:15:23;;;;;;;26.48;3.97;;;;;;;;;;5142741;27;20061;-84
2022/08/10 13:21:12;;;;;;;1.77;1.30;;;;;;;;;;5136875;27;20026;-84
2022/08/10 13:23:47;;;;;;;5.43;1.40;;;;;;;;;;5138711;27;20023;-84
2022/08/10 13:26:15;;;;;;;6.45;1.40;;;;;;;;;;5129669;27;20042;-83
2022/08/10 13:28:44;;;;;;;2.95;1.42;;;;;;;;;;5127145;27;20027;-85
2022/08/10 13:31:16;;;;;;;5.22;1.60;;;;;;;;;;5142156;27;20015;-85
2022/08/10 13:34:05;;;;;;;4.38;1.30;;;;;;;;;;5133262;27;20092;-85
2022/08/10 13:36:33;;;;;;;108.45;96.55;;;;;;;;;;5136382;27;20027;-85
2022/08/10 13:39:00;;;;;;;3.08;1.95;;;;;;;;;;5130150;27;20080;-85
2022/08/10 13:41:27;;;;;;;6.82;2.70;;;;;;;;;;5121493;28;20030;-83
2022/08/10 13:43:56;;;;;;;3.13;1.33;;;;;;;;;;5121462;28;20027;-83
2022/08/10 13:46:22;;;;;;;4.65;1.83;;;;;;;;;;5120121;28;20019;-84
2022/08/10 13:52:12;;;;;;;5.18;1.38;;;;;;;;;;5122367;27;20432;-83
2022/08/10 13:54:39;;;;;;;2.90;1.60;;;;;;;;;;5138331;27;20023;-83
2022/08/10 13:57:06;;;;;;;4.25;1.58;;;;;;;;;;5141405;27;20058;-84
2022/08/10 13:59:33;;;;;;;1.65;1.15;;;;;;;;;;5140359;27;20034;-85
2022/08/10 14:02:01;;;;;;;2.33;1.40;;;;;;;;;;5141795;27;20317;-86
2022/08/10 14:04:27;;;;;;;5.47;1.45;;;;;;;;;;5141484;27;20023;-86
2022/08/10 14:06:54;;;;;;;5.43;1.98;;;;;;;;;;5141629;27;20026;-85
2022/08/10 14:09:26;;;;;;;7.30;1.95;;;;;;;;;;5141761;27;20030;-86
2022/08/10 14:11:54;;;;;;;5.13;1.40;;;;;;;;;;5141542;27;20011;-87
2022/08/10 14:14:24;;;;;;;8.48;1.30;;;;;;;;;;5142256;27;20027;-85
2022/08/10 14:16:50;;;;;;;5.68;1.52;;;;;;;;;;5141545;27;20122;-86
2022/08/10 14:19:24;;;;;;;7.28;1.60;;;;;;;;;;5139448;27;20031;-86
2022/08/10 14:21:50;;;;;;;7.28;1.38;;;;;;;;;;5141192;27;20114;-86
2022/08/10 14:24:22;;;;;;;9.63;1.60;;;;;;;;;;5141389;27;20051;-86
2022/08/10 14:26:50;;;;;;;6.28;1.50;;;;;;;;;;5140961;27;20035;-85
2022/08/10 14:29:16;;;;;;;2.17;1.27;;;;;;;;;;5139989;27;20027;-86
2022/08/10 14:31:47;;;;;;;7.53;1.30;;;;;;;;;;5139982;27;20071;-86
2022/08/10 14:34:14;;;;;;;5.53;1.50;;;;;;;;;;5139547;27;20038;-86
2022/08/10 14:36:50;;;;;;;7.40;1.40;;;;;;;;;;5141182;27;20023;-86
2022/08/10 14:39:27;;;;;;;7.65;1.30;;;;;;;;;;5140824;27;20030;-86
2022/08/10 14:41:55;;;;;;;4.38;1.38;;;;;;;;;;5140144;27;20023;-86
2022/08/10 14:44:21;;;;;;;4.07;1.50;;;;;;;;;;5140726;27;20420;-85
2022/08/10 14:46:48;;;;;;;7.55;1.55;;;;;;;;;;5140259;27;20118;-83
2022/08/10 14:49:15;;;;;;;3.50;1.52;;;;;;;;;;5125259;27;20023;-86
2022/08/10 14:51:43;;;;;;;1.80;1.42;;;;;;;;;;5137060;27;20023;-84
2022/08/10 14:54:12;;;;;;;4.57;1.35;;;;;;;;;;5136650;27;20346;-84
2022/08/10 14:56:39;;;;;;;3.30;2.00;;;;;;;;;;5140003;27;20127;-83
2022/08/10 14:59:05;;;;;;;4.43;1.58;;;;;;;;;;5140318;27;20050;-82
2022/08/10 15:01:32;;;;;;;3.13;1.33;;;;;;;;;;5140601;27;20019;-84
2022/08/10 15:04:04;;;;;;;7.03;1.95;;;;;;;;;;5138743;27;20027;-84
2022/08/10 15:06:49;;;;;;;7.10;1.63;;;;;;;;;;5140227;27;20332;-84
2022/08/10 15:09:17;;;;;;;7.50;1.30;;;;;;;;;;5140487;27;20130;-83
2022/08/10 15:11:44;;;;;;;3.15;1.40;;;;;;;;;;5140580;27;20019;-83
2022/08/10 15:14:11;;;;;;;5.65;1.52;;;;;;;;;;5140125;27;20278;-82
2022/08/10 15:16:37;;;;;;;9.25;1.75;;;;;;;;;;5140286;27;20416;-83
2022/08/10 15:19:05;;;;;;;4.97;1.75;;;;;;;;;;5140612;27;20043;-83
2022/08/10 15:21:36;;;;;;;6.05;1.58;;;;;;;;;;5140744;27;20102;-83
2022/08/10 15:24:04;;;;;;;3.50;1.50;;;;;;;;;;5138968;27;20457;-83
2022/08/10 15:26:32;;;;;;;2.90;1.30;;;;;;;;;;5134607;27;20024;-83
2022/08/10 15:29:03;;;;;;;4.03;1.60;;;;;;;;;;5138763;27;20016;-83
2022/08/10 15:31:32;;;;;;;2.15;1.30;;;;;;;;;;5139283;27;20050;-84
2022/08/10 15:39:34;;;;;;;8.70;2.05;;;;;;;;;;5140093;27;20038;-84
2022/08/10 15:42:10;;;;;;;5.55;1.38;;;;;;;;;;5138553;27;20412;-84
2022/08/10 15:44:38;;;;;;;4.72;1.90;;;;;;;;;;5140174;27;20027;-82
2022/08/10 15:47:08;;;;;;;5.90;2.40;;;;;;;;;;5139664;27;20034;-82
2022/08/10 15:49:38;;;;;;;6.45;1.77;;;;;;;;;;5139879;27;20098;-84
2022/08/10 15:52:07;;;;;;;5.30;1.23;;;;;;;;;;5139650;27;20028;-83
2022/08/10 15:54:38;;;;;;;3.58;1.80;;;;;;;;;;5138261;27;20031;-84
2022/08/10 15:57:10;;;;;;;6.22;1.63;;;;;;;;;;5139551;27;20055;-84
2022/08/10 15:59:41;;;;;;;9.20;2.20;;;;;;;;;;5139387;27;20034;-83